Time;durP1;ratioP1;P1;durP2;ratioP2;P2;SDS_P1;SDS_P2;PMS_P1;PMS_P2;Temp;Humidity;BMP_temperature;BMP_pressure;BME280_temperature;BME280_humidity;BME280_pressure;Samples;Min_cycle;Max_cycle;Signal;HPM_P1;HPM_P2
2021/08/06 00:01:41;;;;;;;0.73;0.73;;;17.00;91.00;;;;;;4951983;29;20031;-68
2021/08/06 00:04:07;;;;;;;0.80;0.80;;;17.00;91.00;;;;;;4956055;28;20694;-69
2021/08/06 00:06:33;;;;;;;1.60;0.80;;;16.90;91.00;;;;;;4949674;28;20038;-68
2021/08/06 00:08:58;;;;;;;0.70;0.70;;;16.90;91.00;;;;;;4951965;28;20026;-68
2021/08/06 00:11:29;;;;;;;1.65;0.80;;;16.90;91.10;;;;;;4954704;29;20032;-69
2021/08/06 00:13:55;;;;;;;0.60;0.60;;;16.80;91.10;;;;;;4955369;29;20041;-69
2021/08/06 00:16:21;;;;;;;0.80;0.80;;;16.80;91.10;;;;;;4953412;28;20042;-65
2021/08/06 00:18:46;;;;;;;0.70;0.70;;;16.80;91.10;;;;;;4954937;29;20031;-67
2021/08/06 00:21:12;;;;;;;0.77;0.77;;;16.80;91.10;;;;;;4954801;29;20067;-70
2021/08/06 00:23:37;;;;;;;1.58;0.88;;;16.70;91.20;;;;;;4936527;29;20031;-69
2021/08/06 00:26:03;;;;;;;1.25;0.80;;;16.70;91.20;;;;;;4934942;29;20026;-68
2021/08/06 00:28:29;;;;;;;0.60;0.60;;;16.70;91.30;;;;;;4952237;29;20031;-67
2021/08/06 00:30:54;;;;;;;0.60;0.60;;;16.70;91.30;;;;;;4954406;29;20115;-69
2021/08/06 00:33:20;;;;;;;2.13;0.95;;;16.70;91.40;;;;;;4954870;29;20090;-68
2021/08/06 00:35:45;;;;;;;0.80;0.80;;;16.70;91.40;;;;;;4954685;28;20107;-69
2021/08/06 00:38:11;;;;;;;2.33;1.02;;;16.60;91.60;;;;;;4935094;28;20042;-67
2021/08/06 00:40:37;;;;;;;1.48;0.80;;;16.60;91.40;;;;;;4952174;28;20055;-66
2021/08/06 00:43:03;;;;;;;0.70;0.70;;;16.60;91.40;;;;;;4935521;29;20035;-69
2021/08/06 00:45:28;;;;;;;0.52;0.52;;;16.60;91.50;;;;;;4935618;29;20392;-68
2021/08/06 00:47:54;;;;;;;0.98;0.70;;;16.60;91.50;;;;;;4944397;29;20788;-68
2021/08/06 00:50:20;;;;;;;1.80;0.65;;;16.70;91.60;;;;;;4944242;29;20024;-69
2021/08/06 00:52:46;;;;;;;0.70;0.70;;;16.70;91.60;;;;;;4950729;29;20054;-68
2021/08/06 00:55:12;;;;;;;1.30;0.90;;;16.70;91.60;;;;;;4948910;28;20027;-68
2021/08/06 00:57:37;;;;;;;0.70;0.70;;;16.70;91.60;;;;;;4959106;28;20070;-68
2021/08/06 01:00:04;;;;;;;1.60;1.00;;;16.70;91.60;;;;;;4957025;28;20069;-68
2021/08/06 01:02:39;;;;;;;0.70;0.70;;;16.70;91.60;;;;;;4957813;28;20390;-68
2021/08/06 01:05:19;;;;;;;2.05;0.80;;;16.70;91.60;;;;;;4948621;28;20039;-68
2021/08/06 01:08:15;;;;;;;0.70;0.70;;;16.70;91.60;;;;;;4951981;28;20166;-68
2021/08/06 01:10:45;;;;;;;0.85;0.85;;;16.60;91.50;;;;;;4932121;29;20040;-68
2021/08/06 01:13:13;;;;;;;1.67;0.77;;;16.60;91.50;;;;;;4950147;29;20039;-68
2021/08/06 01:15:42;;;;;;;1.40;0.80;;;16.60;91.50;;;;;;4936996;29;20174;-68
2021/08/06 01:18:08;;;;;;;0.68;0.68;;;16.60;91.50;;;;;;4949055;29;20603;-68
2021/08/06 01:20:49;;;;;;;0.75;0.75;;;16.50;91.50;;;;;;4952217;28;20829;-68
2021/08/06 01:23:34;;;;;;;1.05;0.75;;;16.50;91.60;;;;;;4953036;29;20066;-68
2021/08/06 01:26:12;;;;;;;0.80;0.80;;;16.50;91.50;;;;;;4936900;29;20091;-67
2021/08/06 01:28:40;;;;;;;2.75;0.90;;;16.40;91.50;;;;;;4934460;29;20100;-67
2021/08/06 01:31:07;;;;;;;1.33;0.75;;;16.40;91.50;;;;;;4933816;29;20024;-68
2021/08/06 01:33:34;;;;;;;0.75;0.75;;;16.40;91.50;;;;;;4953560;28;20074;-68
2021/08/06 01:36:00;;;;;;;1.63;0.75;;;16.30;91.50;;;;;;4938358;28;20183;-68
2021/08/06 01:38:26;;;;;;;0.90;0.70;;;16.30;91.60;;;;;;4948209;28;20373;-67
2021/08/06 01:41:13;;;;;;;0.70;0.70;;;16.30;91.60;;;;;;4953384;28;20038;-67
2021/08/06 01:43:46;;;;;;;0.88;0.70;;;16.30;91.70;;;;;;4941747;29;20039;-68
2021/08/06 01:46:29;;;;;;;1.67;0.90;;;16.20;91.90;;;;;;4933378;29;20106;-68
2021/08/06 01:49:01;;;;;;;0.60;0.55;;;16.30;91.80;;;;;;4947158;29;20097;-68
2021/08/06 01:51:29;;;;;;;0.63;0.63;;;16.20;91.70;;;;;;4953504;29;20065;-68
2021/08/06 01:53:57;;;;;;;0.70;0.70;;;16.20;91.70;;;;;;4941180;29;20118;-68
2021/08/06 01:56:23;;;;;;;1.45;0.60;;;16.20;91.70;;;;;;4950936;29;20476;-67
2021/08/06 01:58:56;;;;;;;1.85;0.70;;;16.20;92.00;;;;;;4942170;29;20044;-68
2021/08/06 02:01:23;;;;;;;0.70;0.70;;;16.20;91.90;;;;;;4935709;29;20091;-68
2021/08/06 02:03:48;;;;;;;0.82;0.82;;;16.20;91.80;;;;;;4957635;28;20057;-67
2021/08/06 02:06:17;;;;;;;0.80;0.80;;;16.20;91.90;;;;;;4943207;28;20035;-67
2021/08/06 02:08:44;;;;;;;0.60;0.60;;;16.10;91.90;;;;;;4917860;29;20034;-67
2021/08/06 02:11:10;;;;;;;1.27;0.70;;;16.20;91.90;;;;;;4950323;29;20035;-68
2021/08/06 02:13:36;;;;;;;0.73;0.73;;;16.10;91.90;;;;;;4946477;29;20057;-68
2021/08/06 02:16:03;;;;;;;0.98;0.82;;;16.10;91.90;;;;;;4932987;29;20032;-67
2021/08/06 02:18:31;;;;;;;0.60;0.60;;;16.10;92.00;;;;;;4942602;29;20019;-68
2021/08/06 02:21:01;;;;;;;1.42;0.73;;;16.20;92.00;;;;;;4952926;29;20035;-68
2021/08/06 02:23:28;;;;;;;0.60;0.60;;;16.20;92.00;;;;;;4944191;29;20043;-68
2021/08/06 02:25:55;;;;;;;0.65;0.60;;;16.20;92.00;;;;;;4931497;29;20588;-67
2021/08/06 02:28:22;;;;;;;0.98;0.80;;;16.20;92.00;;;;;;4935058;29;20055;-67
2021/08/06 02:30:48;;;;;;;0.65;0.65;;;16.20;91.90;;;;;;4933834;29;20035;-68
2021/08/06 02:33:16;;;;;;;0.70;0.70;;;16.10;91.90;;;;;;4943865;28;20042;-67
2021/08/06 02:35:41;;;;;;;0.80;0.77;;;16.10;91.90;;;;;;4951692;28;20485;-68
2021/08/06 02:38:07;;;;;;;1.05;0.85;;;16.00;91.90;;;;;;4944398;28;20055;-68
2021/08/06 02:40:33;;;;;;;1.25;1.10;;;16.00;91.90;;;;;;4952610;29;20121;-67
2021/08/06 02:42:58;;;;;;;0.80;0.80;;;16.00;92.00;;;;;;4950729;29;20059;-68
2021/08/06 02:45:24;;;;;;;0.85;0.85;;;16.00;92.00;;;;;;4951519;29;20030;-67
2021/08/06 02:47:50;;;;;;;0.63;0.63;;;15.90;92.00;;;;;;4941099;29;20023;-68
2021/08/06 02:50:16;;;;;;;0.70;0.70;;;15.90;92.00;;;;;;4933622;29;20472;-67
2021/08/06 02:52:42;;;;;;;0.68;0.65;;;15.90;92.00;;;;;;4933778;28;20035;-67
2021/08/06 02:55:08;;;;;;;0.90;0.63;;;15.90;92.10;;;;;;4947583;29;20031;-68
2021/08/06 02:57:34;;;;;;;0.88;0.88;;;15.90;92.20;;;;;;4943038;29;20110;-68
2021/08/06 03:00:00;;;;;;;1.33;0.82;;;15.90;92.20;;;;;;4951317;29;20111;-68
2021/08/06 03:02:25;;;;;;;0.65;0.65;;;15.90;92.10;;;;;;4956750;28;20034;-68
2021/08/06 03:04:51;;;;;;;0.93;0.82;;;15.90;92.10;;;;;;5036229;23;20046;-64
2021/08/06 03:07:19;;;;;;;0.90;0.90;;;15.80;92.10;;;;;;4981491;28;20091;-66
2021/08/06 03:09:45;;;;;;;0.85;0.75;;;15.80;92.20;;;;;;4965952;28;20019;-66
2021/08/06 03:12:10;;;;;;;0.70;0.70;;;15.90;92.20;;;;;;4971436;28;20027;-66
2021/08/06 03:14:36;;;;;;;1.80;0.60;;;15.90;92.30;;;;;;4954627;28;20410;-66
2021/08/06 03:17:02;;;;;;;1.00;0.82;;;15.90;92.30;;;;;;4951818;29;20372;-65
2021/08/06 03:19:28;;;;;;;0.68;0.68;;;15.90;92.20;;;;;;4980856;28;20031;-65
2021/08/06 03:21:53;;;;;;;1.58;1.00;;;15.80;92.20;;;;;;4979271;28;20544;-65
2021/08/06 03:24:19;;;;;;;1.13;0.80;;;15.80;92.10;;;;;;4969707;28;20043;-66
2021/08/06 03:26:44;;;;;;;1.08;0.98;;;15.70;92.10;;;;;;4968594;28;20399;-66
2021/08/06 03:29:10;;;;;;;0.73;0.73;;;15.70;92.20;;;;;;4971573;28;20375;-65
2021/08/06 03:31:36;;;;;;;0.85;0.85;;;15.60;92.20;;;;;;4967654;28;20476;-65
2021/08/06 03:34:01;;;;;;;0.93;0.80;;;15.60;92.20;;;;;;4952076;29;20034;-66
2021/08/06 03:36:27;;;;;;;0.70;0.70;;;15.50;92.20;;;;;;4961638;28;20484;-66
2021/08/06 03:38:53;;;;;;;0.73;0.70;;;15.50;92.30;;;;;;4976532;28;20344;-66
2021/08/06 03:41:18;;;;;;;1.15;0.85;;;15.60;92.30;;;;;;4969094;28;20039;-65
2021/08/06 03:43:44;;;;;;;3.53;1.02;;;15.60;92.40;;;;;;4971245;28;20031;-65
2021/08/06 03:46:09;;;;;;;0.80;0.80;;;15.70;92.40;;;;;;4970714;28;20035;-66
2021/08/06 03:48:35;;;;;;;0.60;0.60;;;15.70;92.40;;;;;;4955001;29;20066;-65
2021/08/06 03:51:01;;;;;;;0.60;0.60;;;15.70;92.40;;;;;;4957597;28;20027;-66
2021/08/06 03:53:26;;;;;;;1.95;0.70;;;15.80;92.40;;;;;;4973251;28;20035;-64
2021/08/06 03:55:52;;;;;;;1.67;0.70;;;15.80;92.30;;;;;;4973367;28;20044;-66
2021/08/06 03:58:17;;;;;;;1.10;1.00;;;15.80;92.30;;;;;;4973680;28;20027;-67
2021/08/06 04:00:43;;;;;;;1.05;0.80;;;15.90;92.30;;;;;;4971793;28;20073;-68
2021/08/06 04:03:08;;;;;;;0.70;0.70;;;15.90;92.30;;;;;;4955642;28;20392;-67
2021/08/06 04:05:34;;;;;;;1.27;0.80;;;15.90;92.20;;;;;;4970000;28;20403;-67
2021/08/06 04:08:05;;;;;;;2.55;0.90;;;15.90;92.20;;;;;;4968342;28;20031;-68
2021/08/06 04:10:31;;;;;;;2.05;0.65;;;16.00;92.20;;;;;;4955973;28;20034;-67
2021/08/06 04:12:57;;;;;;;1.13;0.80;;;15.90;92.20;;;;;;4971572;28;20022;-68
2021/08/06 04:15:22;;;;;;;0.80;0.80;;;16.00;92.20;;;;;;4973797;28;20047;-68
2021/08/06 04:17:48;;;;;;;0.88;0.70;;;16.00;92.10;;;;;;4971114;28;20421;-68
2021/08/06 04:20:14;;;;;;;1.00;0.90;;;16.00;92.20;;;;;;4955062;28;20106;-67
2021/08/06 04:22:40;;;;;;;0.65;0.65;;;16.00;92.20;;;;;;4956470;28;20102;-67
2021/08/06 04:25:06;;;;;;;0.70;0.70;;;16.00;92.10;;;;;;4973490;28;20031;-67
2021/08/06 04:27:32;;;;;;;1.13;0.80;;;16.00;92.10;;;;;;4968337;28;20099;-68
2021/08/06 04:29:57;;;;;;;1.30;1.10;;;16.00;92.10;;;;;;4973708;28;20110;-68
2021/08/06 04:32:23;;;;;;;0.85;0.85;;;16.00;92.10;;;;;;4973880;28;20101;-67
2021/08/06 04:34:48;;;;;;;1.48;0.93;;;16.00;92.10;;;;;;4972953;28;20034;-68
2021/08/06 04:37:14;;;;;;;0.80;0.80;;;16.00;92.10;;;;;;4969376;28;20073;-68
2021/08/06 04:39:40;;;;;;;3.38;1.13;;;16.10;92.10;;;;;;4973917;28;20023;-66
2021/08/06 04:42:06;;;;;;;0.70;0.70;;;16.10;92.10;;;;;;4969280;28;20031;-66
2021/08/06 04:44:35;;;;;;;3.03;0.90;;;16.10;92.10;;;;;;4973979;28;20035;-68
2021/08/06 04:47:02;;;;;;;1.75;1.02;;;16.10;92.10;;;;;;4973099;28;20093;-68
2021/08/06 04:49:27;;;;;;;2.42;0.90;;;16.10;92.00;;;;;;4974081;28;20037;-68
2021/08/06 04:51:53;;;;;;;3.17;1.00;;;16.10;92.00;;;;;;4966341;28;20027;-68
2021/08/06 04:54:18;;;;;;;1.10;1.00;;;16.20;92.00;;;;;;4962529;28;20117;-68
2021/08/06 04:56:44;;;;;;;1.42;1.15;;;16.20;92.00;;;;;;4970499;28;20034;-66
2021/08/06 04:59:09;;;;;;;1.10;0.73;;;16.20;91.90;;;;;;4974337;28;20034;-68
2021/08/06 05:01:35;;;;;;;1.70;1.17;;;16.20;91.90;;;;;;4972946;28;20035;-68
2021/08/06 05:04:01;;;;;;;2.33;0.90;;;16.20;91.80;;;;;;4973132;28;20078;-68
2021/08/06 05:06:27;;;;;;;3.33;0.77;;;16.20;91.80;;;;;;4972117;28;20062;-68
2021/08/06 05:08:52;;;;;;;2.03;0.90;;;16.20;91.80;;;;;;4973793;28;20044;-67
2021/08/06 05:11:18;;;;;;;1.95;0.85;;;16.20;91.70;;;;;;4969657;28;20046;-68
2021/08/06 05:13:44;;;;;;;0.73;0.73;;;16.20;91.70;;;;;;4973906;28;20054;-68
2021/08/06 05:16:09;;;;;;;2.20;0.90;;;16.20;91.60;;;;;;4969259;28;20039;-69
2021/08/06 05:18:36;;;;;;;3.40;1.38;;;16.20;91.70;;;;;;4954116;29;20365;-68
2021/08/06 05:21:02;;;;;;;1.83;1.20;;;16.20;91.60;;;;;;4956819;28;20550;-68
2021/08/06 05:23:27;;;;;;;1.40;1.30;;;16.20;91.60;;;;;;4962416;28;20071;-68
2021/08/06 05:25:53;;;;;;;1.33;1.17;;;16.20;91.60;;;;;;4980495;28;20025;-68
2021/08/06 05:28:19;;;;;;;1.40;1.30;;;16.20;91.80;;;;;;4973491;28;20031;-68
2021/08/06 05:30:44;;;;;;;1.38;1.27;;;16.10;91.80;;;;;;4958987;28;20031;-68
2021/08/06 05:33:10;;;;;;;1.50;1.40;;;16.10;91.90;;;;;;4969068;28;20372;-68
2021/08/06 05:35:37;;;;;;;2.08;1.45;;;16.00;92.00;;;;;;4960945;28;20022;-68
2021/08/06 05:38:02;;;;;;;2.65;1.20;;;16.00;92.10;;;;;;4963113;28;20031;-66
2021/08/06 05:40:28;;;;;;;3.47;1.35;;;16.00;92.30;;;;;;4973099;28;20061;-66
2021/08/06 05:42:56;;;;;;;1.75;1.65;;;16.00;92.30;;;;;;4954663;28;20054;-68
2021/08/06 05:45:21;;;;;;;1.65;1.55;;;16.00;92.40;;;;;;4968579;28;20031;-68
2021/08/06 05:47:53;;;;;;;2.10;1.67;;;15.90;92.40;;;;;;4973081;28;20038;-68
2021/08/06 05:50:21;;;;;;;2.72;1.60;;;15.90;92.60;;;;;;4973630;28;20019;-66
2021/08/06 05:52:47;;;;;;;1.45;1.35;;;15.90;92.60;;;;;;4965536;28;20109;-66
2021/08/06 05:55:14;;;;;;;4.10;2.28;;;15.90;92.70;;;;;;4969230;28;20114;-66
2021/08/06 05:57:39;;;;;;;2.35;1.45;;;15.80;92.70;;;;;;4958538;28;20042;-66
2021/08/06 06:00:07;;;;;;;1.70;1.60;;;15.90;92.80;;;;;;4967466;28;20031;-66
2021/08/06 06:02:33;;;;;;;2.47;2.13;;;15.80;92.90;;;;;;4969808;28;20666;-66
2021/08/06 06:04:59;;;;;;;1.95;1.75;;;15.80;92.80;;;;;;4966601;28;20061;-67
2021/08/06 06:07:24;;;;;;;3.55;2.17;;;15.80;92.90;;;;;;4971603;28;20408;-66
2021/08/06 06:09:50;;;;;;;1.90;1.80;;;15.80;92.90;;;;;;4973012;28;20169;-66
2021/08/06 06:12:16;;;;;;;2.80;2.47;;;15.70;92.90;;;;;;4972706;28;20380;-68
2021/08/06 06:14:41;;;;;;;2.10;1.90;;;15.60;93.00;;;;;;4964813;28;20023;-68
2021/08/06 06:17:07;;;;;;;3.17;2.05;;;15.60;93.10;;;;;;4968992;28;20038;-68
2021/08/06 06:19:33;;;;;;;3.50;2.08;;;15.50;93.50;;;;;;4968608;28;20050;-67
2021/08/06 06:21:58;;;;;;;2.47;2.08;;;15.50;93.40;;;;;;4970273;28;20502;-67
2021/08/06 06:24:24;;;;;;;2.40;2.10;;;15.50;93.50;;;;;;4971076;28;20114;-68
2021/08/06 06:26:50;;;;;;;5.10;2.40;;;15.50;93.60;;;;;;4970350;28;20499;-68
2021/08/06 06:29:15;;;;;;;3.40;1.77;;;15.50;93.70;;;;;;4972422;28;20027;-67
2021/08/06 06:31:41;;;;;;;3.60;2.03;;;15.50;93.70;;;;;;4968667;28;20110;-67
2021/08/06 06:34:06;;;;;;;3.33;2.00;;;15.50;93.70;;;;;;4971336;28;20029;-67
2021/08/06 06:36:33;;;;;;;2.63;2.00;;;15.50;93.90;;;;;;4971021;28;20035;-67
2021/08/06 06:38:59;;;;;;;2.20;2.00;;;15.50;93.90;;;;;;4971265;28;20026;-66
2021/08/06 06:41:24;;;;;;;1.88;1.67;;;15.50;94.00;;;;;;4972649;28;20118;-67
2021/08/06 06:43:50;;;;;;;1.92;1.83;;;15.50;94.00;;;;;;4972476;28;20066;-66
2021/08/06 06:46:15;;;;;;;14.98;10.60;;;15.50;94.10;;;;;;4971410;28;20466;-66
2021/08/06 06:48:41;;;;;;;3.63;2.70;;;15.60;94.10;;;;;;4972494;28;20073;-67
2021/08/06 06:51:06;;;;;;;3.17;1.88;;;15.60;94.20;;;;;;4972599;28;20027;-67
2021/08/06 06:53:32;;;;;;;3.55;2.38;;;15.60;94.10;;;;;;4972360;28;20064;-66
2021/08/06 06:55:58;;;;;;;2.33;2.10;;;15.60;94.10;;;;;;4971562;28;20110;-67
2021/08/06 06:58:23;;;;;;;2.00;1.75;;;15.70;94.20;;;;;;4972241;28;20056;-67
2021/08/06 07:00:49;;;;;;;2.63;1.70;;;15.70;94.30;;;;;;4972559;28;20144;-67
2021/08/06 07:03:15;;;;;;;4.40;2.03;;;15.80;94.30;;;;;;4972494;28;20030;-66
2021/08/06 07:05:41;;;;;;;1.77;1.67;;;15.80;94.30;;;;;;4971060;28;20041;-67
2021/08/06 07:08:07;;;;;;;2.80;2.00;;;15.80;94.30;;;;;;4971104;28;20110;-67
2021/08/06 07:10:33;;;;;;;2.03;1.85;;;15.90;94.30;;;;;;4972499;28;20027;-67
2021/08/06 07:12:58;;;;;;;2.00;1.90;;;15.90;94.40;;;;;;4970973;28;20093;-67
2021/08/06 07:15:25;;;;;;;2.75;2.03;;;15.90;94.40;;;;;;4971346;28;20026;-67
2021/08/06 07:17:51;;;;;;;1.80;1.70;;;15.90;94.40;;;;;;4972229;28;20050;-67
2021/08/06 07:20:18;;;;;;;2.70;2.10;;;16.00;94.40;;;;;;4987954;28;20081;-67
2021/08/06 07:22:44;;;;;;;2.78;1.70;;;16.20;94.40;;;;;;4966180;28;20490;-67
2021/08/06 07:25:12;;;;;;;2.45;1.90;;;16.20;94.40;;;;;;4971078;28;20035;-67
2021/08/06 07:27:39;;;;;;;1.77;1.52;;;16.30;94.40;;;;;;4971830;28;20027;-67
2021/08/06 07:30:06;;;;;;;2.15;1.75;;;16.60;94.30;;;;;;4971035;28;20027;-67
2021/08/06 07:32:32;;;;;;;2.00;1.80;;;16.70;94.30;;;;;;4972261;28;20019;-67
2021/08/06 07:34:58;;;;;;;1.60;1.50;;;16.90;94.10;;;;;;4971019;28;20448;-67
2021/08/06 07:37:23;;;;;;;1.80;1.70;;;17.10;94.00;;;;;;4971722;28;20102;-67
2021/08/06 07:39:49;;;;;;;1.58;1.40;;;17.20;94.00;;;;;;4972266;28;20483;-67
2021/08/06 07:42:15;;;;;;;3.72;1.50;;;17.20;94.10;;;;;;4971764;28;20038;-67
2021/08/06 07:44:41;;;;;;;1.38;1.25;;;17.30;94.20;;;;;;4971077;28;20490;-67
2021/08/06 07:47:07;;;;;;;1.35;1.20;;;17.30;94.10;;;;;;4971880;28;20081;-67
2021/08/06 07:49:33;;;;;;;1.88;1.45;;;17.20;94.20;;;;;;4972110;28;20105;-67
2021/08/06 07:51:58;;;;;;;1.48;1.25;;;17.20;94.20;;;;;;4971763;28;20044;-68
2021/08/06 07:54:24;;;;;;;1.85;1.65;;;17.20;94.20;;;;;;4972150;28;20027;-67
2021/08/06 07:56:50;;;;;;;1.65;1.50;;;17.30;94.30;;;;;;4970495;28;20026;-68
2021/08/06 07:59:19;;;;;;;1.63;1.45;;;17.20;94.10;;;;;;4971900;28;20030;-68
2021/08/06 08:01:44;;;;;;;2.25;1.80;;;17.20;94.20;;;;;;4972120;28;20026;-68
2021/08/06 08:04:10;;;;;;;2.35;1.52;;;17.20;94.20;;;;;;4971727;28;20038;-68
2021/08/06 08:06:35;;;;;;;1.80;1.70;;;17.10;94.20;;;;;;4970349;28;20038;-68
2021/08/06 08:09:01;;;;;;;1.67;1.38;;;17.10;94.30;;;;;;4971578;28;20166;-68
2021/08/06 08:11:27;;;;;;;1.98;1.70;;;17.00;94.30;;;;;;4971625;28;20086;-68
2021/08/06 08:13:52;;;;;;;1.80;1.70;;;17.10;94.40;;;;;;4971583;28;20435;-68
2021/08/06 08:16:18;;;;;;;2.38;1.40;;;17.10;94.30;;;;;;4970736;28;20059;-68
2021/08/06 08:18:43;;;;;;;2.80;1.38;;;17.10;94.30;;;;;;4971616;28;20093;-68
2021/08/06 08:21:09;;;;;;;1.80;1.50;;;17.10;94.20;;;;;;4967630;28;20472;-68
2021/08/06 08:23:35;;;;;;;3.08;1.48;;;17.00;94.10;;;;;;4969650;28;20019;-68
2021/08/06 08:26:00;;;;;;;2.45;1.50;;;17.00;94.10;;;;;;4970320;28;20031;-68
2021/08/06 08:28:27;;;;;;;1.55;1.38;;;17.00;94.20;;;;;;4971456;28;20026;-68
2021/08/06 08:30:52;;;;;;;2.28;1.40;;;17.00;94.10;;;;;;4969476;28;20015;-68
2021/08/06 08:33:20;;;;;;;7.22;1.70;;;17.00;94.10;;;;;;4975076;28;20105;-68
2021/08/06 08:35:45;;;;;;;2.53;1.42;;;17.00;94.20;;;;;;4973745;28;20190;-68
2021/08/06 08:38:11;;;;;;;2.22;1.80;;;17.00;94.20;;;;;;4974625;28;20022;-68
2021/08/06 08:40:38;;;;;;;1.50;1.40;;;17.00;94.20;;;;;;4974833;28;20027;-68
2021/08/06 08:43:05;;;;;;;1.30;1.30;;;17.00;94.20;;;;;;4974702;28;20514;-68
2021/08/06 08:45:31;;;;;;;2.53;1.20;;;17.00;94.20;;;;;;4973951;28;20081;-68
2021/08/06 08:47:58;;;;;;;1.75;1.10;;;17.00;94.30;;;;;;4974617;28;20031;-68
2021/08/06 08:50:26;;;;;;;1.40;1.30;;;17.00;94.40;;;;;;4974770;28;20077;-68
2021/08/06 08:52:51;;;;;;;6.28;1.10;;;17.00;94.40;;;;;;4974669;28;20023;-68
2021/08/06 08:55:17;;;;;;;1.85;0.90;;;17.00;94.40;;;;;;4973541;28;20031;-68
2021/08/06 08:57:43;;;;;;;1.42;1.15;;;16.90;94.30;;;;;;4974313;28;20133;-68
2021/08/06 09:00:12;;;;;;;1.45;0.82;;;16.90;94.30;;;;;;4974693;28;20518;-68
2021/08/06 09:02:39;;;;;;;1.52;0.88;;;17.00;94.30;;;;;;4974648;28;20105;-68
2021/08/06 09:05:25;;;;;;;1.73;0.88;;;17.00;94.30;;;;;;4973204;28;20035;-67
2021/08/06 09:07:51;;;;;;;1.25;0.90;;;17.00;94.30;;;;;;4973951;28;20153;-68
2021/08/06 09:10:25;;;;;;;0.90;0.90;;;17.10;94.20;;;;;;4974282;28;20027;-69
2021/08/06 09:12:57;;;;;;;2.65;0.80;;;17.10;94.20;;;;;;4974320;28;20034;-67
2021/08/06 09:15:42;;;;;;;1.02;0.93;;;17.10;94.20;;;;;;4973270;28;20027;-67
2021/08/06 09:18:23;;;;;;;2.20;0.82;;;17.10;94.10;;;;;;4973935;28;20051;-68
2021/08/06 09:20:50;;;;;;;2.03;0.93;;;17.10;94.00;;;;;;4972774;28;20043;-68
2021/08/06 09:23:40;;;;;;;2.30;0.98;;;17.20;94.00;;;;;;4970734;28;20375;-68
2021/08/06 09:26:30;;;;;;;1.63;0.90;;;17.30;94.00;;;;;;4973039;28;20023;-68
2021/08/06 09:29:01;;;;;;;2.65;0.80;;;17.40;93.90;;;;;;4968284;28;20031;-67
2021/08/06 09:31:28;;;;;;;1.08;0.85;;;17.50;93.80;;;;;;4972494;28;20019;-69
2021/08/06 09:34:24;;;;;;;1.25;0.82;;;17.50;93.80;;;;;;4973878;28;20035;-67
2021/08/06 09:37:03;;;;;;;1.00;0.80;;;17.60;93.80;;;;;;4965927;28;20022;-68
2021/08/06 09:39:50;;;;;;;2.22;0.98;;;17.70;93.60;;;;;;4973788;28;20495;-67
2021/08/06 09:42:32;;;;;;;2.45;1.10;;;17.70;93.60;;;;;;4973212;28;20383;-67
2021/08/06 09:45:08;;;;;;;1.92;0.77;;;17.90;93.60;;;;;;4972776;28;20095;-68
2021/08/06 09:47:36;;;;;;;3.35;1.13;;;18.00;93.60;;;;;;4973383;28;20019;-67
2021/08/06 09:50:07;;;;;;;1.95;0.82;;;18.20;93.40;;;;;;4973591;28;20046;-68
2021/08/06 09:52:34;;;;;;;1.35;0.98;;;18.20;93.10;;;;;;4973214;28;20074;-67
2021/08/06 09:55:00;;;;;;;0.95;0.80;;;18.30;93.10;;;;;;4972725;28;20079;-68
2021/08/06 09:57:26;;;;;;;2.17;0.80;;;18.50;93.10;;;;;;4973172;28;20359;-68
2021/08/06 09:59:57;;;;;;;1.27;0.88;;;18.70;92.90;;;;;;4973313;28;20030;-67
2021/08/06 10:02:32;;;;;;;2.05;0.90;;;18.70;92.70;;;;;;4972260;28;20049;-67
2021/08/06 10:05:12;;;;;;;3.53;0.93;;;18.80;92.80;;;;;;4972048;28;20066;-68
2021/08/06 10:07:41;;;;;;;1.20;0.65;;;18.90;92.50;;;;;;4972891;28;20019;-69
2021/08/06 10:10:13;;;;;;;2.33;0.73;;;18.90;92.40;;;;;;4973069;28;20093;-67
2021/08/06 10:12:38;;;;;;;1.52;0.77;;;19.10;92.20;;;;;;4973224;28;20078;-68
2021/08/06 10:15:05;;;;;;;4.43;0.90;;;19.40;92.00;;;;;;4972108;28;20518;-67
2021/08/06 10:17:31;;;;;;;4.38;0.88;;;19.40;91.90;;;;;;4970248;28;20054;-68
2021/08/06 10:19:57;;;;;;;4.15;0.70;;;19.50;91.70;;;;;;4969427;28;20062;-68
2021/08/06 10:22:23;;;;;;;4.28;0.82;;;19.70;91.30;;;;;;4972745;28;20030;-68
2021/08/06 10:24:52;;;;;;;1.13;0.77;;;19.80;91.00;;;;;;4971516;28;20030;-69
2021/08/06 10:27:27;;;;;;;2.60;0.70;;;19.90;91.00;;;;;;4972553;28;20027;-68
2021/08/06 10:30:03;;;;;;;2.72;0.73;;;20.00;90.70;;;;;;4972814;28;20022;-69
2021/08/06 10:32:30;;;;;;;1.30;0.60;;;20.20;90.60;;;;;;4973068;28;20090;-67
2021/08/06 10:35:17;;;;;;;1.30;0.70;;;20.20;90.20;;;;;;4971797;28;20022;-67
2021/08/06 10:38:04;;;;;;;1.30;0.70;;;20.10;89.20;;;;;;4972210;28;20041;-68
2021/08/06 10:40:37;;;;;;;1.35;0.75;;;20.10;88.60;;;;;;4972879;28;20066;-68
2021/08/06 10:43:09;;;;;;;2.42;0.80;;;20.00;88.20;;;;;;4972554;28;20050;-68
2021/08/06 10:45:47;;;;;;;1.63;0.70;;;19.80;88.40;;;;;;4971595;28;20029;-68
2021/08/06 10:48:31;;;;;;;1.40;0.60;;;19.70;88.30;;;;;;4971122;28;20147;-68
2021/08/06 10:51:12;;;;;;;2.28;0.63;;;19.60;88.10;;;;;;4971183;28;20037;-67
2021/08/06 10:53:56;;;;;;;2.28;0.60;;;19.50;88.30;;;;;;4970520;28;20033;-67
2021/08/06 10:56:24;;;;;;;2.28;0.80;;;19.40;87.90;;;;;;4970246;28;20349;-67
2021/08/06 10:58:50;;;;;;;2.42;0.90;;;19.50;88.30;;;;;;4972220;28;20027;-67
2021/08/06 11:04:16;;;;;;;0.65;0.60;;;19.80;88.50;;;;;;4972292;28;20039;-68
2021/08/06 11:06:52;;;;;;;1.58;0.63;;;20.10;89.00;;;;;;4970729;28;20034;-68
2021/08/06 11:09:27;;;;;;;0.88;0.80;;;20.30;88.00;;;;;;4972273;28;20077;-67
2021/08/06 11:12:01;;;;;;;1.92;0.60;;;20.30;87.80;;;;;;4972242;28;20053;-67
2021/08/06 11:14:32;;;;;;;2.30;0.60;;;20.20;86.60;;;;;;4986438;28;20022;-68
2021/08/06 11:17:00;;;;;;;2.67;0.80;;;20.10;86.10;;;;;;4990909;28;21001;-68
2021/08/06 11:19:27;;;;;;;2.15;0.68;;;20.20;86.50;;;;;;4982569;28;20070;-67
2021/08/06 11:21:53;;;;;;;0.63;0.60;;;20.10;86.50;;;;;;4971786;28;20022;-68
2021/08/06 11:24:19;;;;;;;1.08;0.63;;;20.20;86.40;;;;;;4972190;28;20053;-67
2021/08/06 11:26:49;;;;;;;0.70;0.60;;;20.10;85.90;;;;;;4971054;28;20049;-67
2021/08/06 11:29:16;;;;;;;2.25;0.60;;;20.00;85.50;;;;;;4972206;28;20031;-67
2021/08/06 11:31:42;;;;;;;0.93;0.80;;;19.90;85.60;;;;;;4972103;28;20472;-67
2021/08/06 11:34:08;;;;;;;1.60;0.80;;;19.80;85.30;;;;;;4972281;28;20050;-67
2021/08/06 11:36:35;;;;;;;2.50;0.70;;;19.80;85.00;;;;;;4970534;28;20023;-67
2021/08/06 11:39:11;;;;;;;0.47;0.47;;;19.80;84.80;;;;;;4971911;28;20039;-68
2021/08/06 11:41:51;;;;;;;1.98;0.80;;;19.90;84.70;;;;;;4972057;28;20023;-67
2021/08/06 11:44:17;;;;;;;1.25;0.50;;;20.10;84.90;;;;;;4971904;28;20027;-68
2021/08/06 11:46:48;;;;;;;0.85;0.60;;;20.20;84.50;;;;;;4970861;28;20494;-67
2021/08/06 11:49:14;;;;;;;1.90;0.40;;;20.30;83.80;;;;;;4972090;28;20019;-67
2021/08/06 11:52:00;;;;;;;0.95;0.50;;;20.40;84.00;;;;;;4971662;28;20023;-68
2021/08/06 11:54:26;;;;;;;1.35;0.40;;;20.60;83.30;;;;;;4971636;28;20110;-68
2021/08/06 11:56:59;;;;;;;0.35;0.35;;;20.80;82.90;;;;;;4971057;28;20154;-67
2021/08/06 11:59:25;;;;;;;0.40;0.30;;;20.90;81.80;;;;;;4972183;28;20046;-68
2021/08/06 12:02:21;;;;;;;0.57;0.32;;;20.90;81.50;;;;;;4972064;28;20498;-68
2021/08/06 12:04:46;;;;;;;1.27;0.55;;;20.90;81.20;;;;;;4970427;28;20043;-68
2021/08/06 12:07:12;;;;;;;0.95;0.50;;;20.90;81.30;;;;;;4974908;28;20023;-68
2021/08/06 12:09:44;;;;;;;2.25;0.57;;;20.90;81.40;;;;;;4975507;28;20019;-68
2021/08/06 12:12:09;;;;;;;4.97;0.38;;;20.90;81.30;;;;;;4975504;28;20054;-67
2021/08/06 12:14:35;;;;;;;1.75;0.40;;;21.00;80.90;;;;;;4974426;28;20059;-68
2021/08/06 12:17:00;;;;;;;0.52;0.52;;;21.00;80.60;;;;;;4975275;28;20053;-68
2021/08/06 12:19:26;;;;;;;0.85;0.50;;;21.00;80.50;;;;;;4974403;28;20030;-67
2021/08/06 12:21:52;;;;;;;0.52;0.50;;;21.00;80.10;;;;;;4975020;28;20121;-68
2021/08/06 12:24:21;;;;;;;0.75;0.40;;;20.90;80.00;;;;;;4975261;28;20055;-68
2021/08/06 12:26:52;;;;;;;1.08;0.50;;;20.80;79.10;;;;;;4974008;28;20042;-68
2021/08/06 12:29:23;;;;;;;0.60;0.50;;;20.60;78.50;;;;;;4975350;28;20119;-68
2021/08/06 12:31:54;;;;;;;1.88;0.40;;;20.40;78.20;;;;;;4975040;28;20262;-68
2021/08/06 12:34:24;;;;;;;0.47;0.40;;;20.20;78.00;;;;;;4975054;28;20027;-68
2021/08/06 12:37:18;;;;;;;0.88;0.30;;;20.10;77.90;;;;;;4965874;28;20035;-68
2021/08/06 12:39:47;;;;;;;0.77;0.30;;;20.10;77.80;;;;;;4951310;29;20041;-68
2021/08/06 12:42:15;;;;;;;0.50;0.38;;;20.00;78.20;;;;;;4955382;28;20038;-67
2021/08/06 12:45:01;;;;;;;1.60;0.40;;;19.90;77.90;;;;;;4954579;28;20027;-68
2021/08/06 12:47:27;;;;;;;0.45;0.30;;;19.90;77.70;;;;;;4955364;28;20383;-68
2021/08/06 12:50:05;;;;;;;0.63;0.32;;;19.90;78.30;;;;;;4955374;28;20102;-68
2021/08/06 12:52:37;;;;;;;2.40;0.57;;;19.90;78.40;;;;;;4955357;28;20019;-68
2021/08/06 12:55:32;;;;;;;1.88;0.50;;;20.00;78.20;;;;;;4971974;28;20035;-68
2021/08/06 12:58:18;;;;;;;3.65;0.75;;;20.10;78.40;;;;;;4961909;28;20034;-68